Main page
METAR-TAF:

METAR-TAF

Airports :

Verona, Italy

Verona Villafranca Airport

latitude: 45-23N, longitude: 010-52E, elevation: 67 m

Current weather observation

The report was made 33 minutes ago, at 08:20 UTC
Wind 4 kt from the Southeast, varying between East/Northeast and South
Temperature 25°C
Humidity 50%
Pressure 1010 hPa
Visibility 10 km or more
no clouds below 1500 m and no cumulonimbus

METAR: LIPX 270820Z 14004KT 070V190 CAVOK 25/14 Q1010

Time: 10:53 (08:53 UTC)

Forecast

The report was made 53 minutes ago, at 08:00 UTC
Forecast valid from 27 at 09 UTC to 27 at 18 UTC
Wind 5 kt from variable directions
Visibility 10 km or more
Scattered clouds at a height of 6000 ft

TAF: LIPX 270800Z 2709/2718 VRB05KT 9999 SCT060

Weather observations and forecasts of more than 4000 airports (METAR and TAF reports).

The available stations are represented by yellow and red dots on the map.

Hover mouse over dot to see the name of the station.

Then click to see weather observations and forecasts.

To change the map : click on the green buttons with a black cross to zoom in, on the green button with a dash to zoom out, or on the green arrows for adjacent maps.


METAR-TAF: